Time;durP1;ratioP1;P1;durP2;ratioP2;P2;SDS_P1;SDS_P2;PMS_P1;PMS_P2;Temp;Humidity;BMP_temperature;BMP_pressure;BME280_temperature;BME280_humidity;BME280_pressure;Samples;Min_cycle;Max_cycle;Signal;HPM_P1;HPM_P2
2023/08/29 00:00:22;;;;;;;1.48;1.17;;;;;;;-146.87;100.00;60295.22;4939437;28;20298;-50
2023/08/29 00:02:48;;;;;;;1.75;1.20;;;;;;;-146.87;100.00;60295.22;4940975;28;20190;-52
2023/08/29 00:05:14;;;;;;;1.33;1.23;;;;;;;-146.87;100.00;60295.22;4943892;28;20887;-46
2023/08/29 00:07:39;;;;;;;2.42;1.20;;;;;;;-146.87;100.00;60295.22;4940659;28;20206;-48
2023/08/29 00:10:06;;;;;;;1.50;1.15;;;;;;;-146.87;100.00;60295.22;4940558;28;20191;-50
2023/08/29 00:12:34;;;;;;;3.53;1.50;;;;;;;-146.87;100.00;60295.22;4941332;28;20183;-48
2023/08/29 00:15:01;;;;;;;2.33;1.27;;;;;;;-146.87;100.00;60295.22;4935135;28;20628;-49
2023/08/29 00:17:27;;;;;;;1.60;1.23;;;;;;;-146.87;100.00;60295.22;4937559;28;20179;-49
2023/08/29 00:19:53;;;;;;;1.58;1.27;;;;;;;-146.87;100.00;60295.22;4942282;28;20245;-52
2023/08/29 00:22:20;;;;;;;1.83;1.30;;;;;;;-146.87;100.00;60295.22;4940630;28;20947;-50
2023/08/29 00:24:46;;;;;;;1.17;1.17;;;;;;;-146.87;100.00;60295.22;4942366;28;20282;-46
2023/08/29 00:27:11;;;;;;;3.30;1.30;;;;;;;-146.87;100.00;60295.22;4937331;28;20271;-46
2023/08/29 00:29:37;;;;;;;1.45;1.35;;;;;;;-146.87;100.00;60295.22;4935752;28;20211;-50
2023/08/29 00:32:05;;;;;;;2.22;1.15;;;;;;;-146.87;100.00;60295.22;4943526;28;20183;-48
2023/08/29 00:34:31;;;;;;;2.97;1.35;;;;;;;-146.87;100.00;60295.22;4939726;28;20198;-50
2023/08/29 00:36:56;;;;;;;3.20;1.42;;;;;;;-146.87;100.00;60295.22;4938826;28;20210;-47
2023/08/29 00:39:23;;;;;;;1.50;1.40;;;;;;;-146.87;100.00;60295.22;4940388;28;20206;-50
2023/08/29 00:41:49;;;;;;;2.38;1.45;;;;;;;-146.87;100.00;60295.22;4937091;28;20210;-46
2023/08/29 00:44:16;;;;;;;1.65;1.40;;;;;;;-146.87;100.00;60295.22;4940101;28;20246;-47
2023/08/29 00:46:44;;;;;;;2.05;1.48;;;;;;;-146.87;100.00;60295.22;4937730;28;20182;-50
2023/08/29 00:49:11;;;;;;;2.17;1.52;;;;;;;-146.87;100.00;60295.22;4941449;28;20265;-49
2023/08/29 00:51:38;;;;;;;2.92;1.52;;;;;;;-146.87;100.00;60295.22;4938708;28;20202;-51
2023/08/29 00:54:04;;;;;;;2.63;1.40;;;;;;;-146.87;100.00;60295.22;4939805;28;20199;-46
2023/08/29 00:56:30;;;;;;;3.15;1.48;;;;;;;-146.87;100.00;60295.22;4942752;28;20183;-47
2023/08/29 00:58:56;;;;;;;3.40;1.80;;;;;;;-146.87;100.00;60295.22;4940175;28;20277;-47
2023/08/29 01:01:21;;;;;;;1.42;1.38;;;;;;;-146.87;100.00;60295.22;4938962;28;20740;-51
2023/08/29 01:03:47;;;;;;;3.20;1.45;;;;;;;-146.87;100.00;60295.22;4941317;28;20255;-50
2023/08/29 01:06:14;;;;;;;1.58;1.48;;;;;;;-146.87;100.00;60295.22;4941958;28;20270;-49
2023/08/29 01:08:43;;;;;;;1.60;1.50;;;;;;;-146.87;100.00;60295.22;4936936;28;20258;-49
2023/08/29 01:11:23;;;;;;;1.42;1.33;;;;;;;-146.87;100.00;60295.22;4937778;28;20294;-50
2023/08/29 01:13:52;;;;;;;1.33;1.20;;;;;;;-146.87;100.00;60295.22;4934837;28;20253;-46
2023/08/29 01:16:23;;;;;;;1.60;1.50;;;;;;;-146.87;100.00;60295.22;4939218;28;20190;-46
2023/08/29 01:18:51;;;;;;;1.88;1.60;;;;;;;-146.87;100.00;60295.22;4938346;28;20184;-49
2023/08/29 01:21:28;;;;;;;1.52;1.42;;;;;;;-146.87;100.00;60295.22;4934207;28;20218;-50
2023/08/29 01:24:02;;;;;;;2.97;1.77;;;;;;;-146.87;100.00;60295.22;4952392;28;20194;-47
2023/08/29 01:26:32;;;;;;;1.90;1.80;;;;;;;-146.87;100.00;60295.22;4937783;28;20186;-48
2023/08/29 01:29:00;;;;;;;3.25;2.45;;;;;;;-146.87;100.00;60295.22;4932641;28;20698;-49
2023/08/29 01:31:29;;;;;;;2.50;2.30;;;;;;;-146.87;100.00;60295.22;4935850;28;20179;-49
2023/08/29 01:33:57;;;;;;;4.68;2.17;;;;;;;-146.87;100.00;60295.22;4932769;28;20186;-47
2023/08/29 01:36:26;;;;;;;3.15;2.15;;;;;;;-146.87;100.00;60295.22;4933069;28;20187;-50
2023/08/29 01:38:52;;;;;;;3.85;2.58;;;;;;;-146.87;100.00;60295.22;4927117;28;20254;-49
2023/08/29 01:41:17;;;;;;;2.35;2.15;;;;;;;-146.87;100.00;60295.22;4942264;28;20187;-46
2023/08/29 01:43:43;;;;;;;2.80;2.25;;;;;;;-146.87;100.00;60295.22;4933808;28;20202;-49
2023/08/29 01:46:10;;;;;;;4.70;2.35;;;;;;;-146.87;100.00;60295.22;4938591;28;20182;-48
2023/08/29 01:48:38;;;;;;;6.97;2.67;;;;;;;-146.87;100.00;60295.22;4936679;28;20186;-46
2023/08/29 01:51:03;;;;;;;2.40;2.10;;;;;;;-146.87;100.00;60295.22;4937357;28;20666;-51
2023/08/29 01:53:29;;;;;;;2.97;2.40;;;;;;;-146.87;100.00;60295.22;4933643;28;20331;-47
2023/08/29 01:55:56;;;;;;;2.95;2.20;;;;;;;-146.87;100.00;60295.22;4940960;28;20184;-46
2023/08/29 01:58:23;;;;;;;3.28;2.40;;;;;;;-146.87;100.00;60295.22;4937676;28;20194;-51
2023/08/29 02:00:49;;;;;;;2.50;2.30;;;;;;;-146.87;100.00;60295.22;4939423;28;20217;-51
2023/08/29 02:03:15;;;;;;;4.22;2.47;;;;;;;-146.87;100.00;60295.22;4934787;28;20694;-48
2023/08/29 02:05:41;;;;;;;2.25;2.03;;;;;;;-146.87;100.00;60295.22;4934836;28;20201;-47
2023/08/29 02:08:07;;;;;;;2.78;1.80;;;;;;;-146.87;100.00;60295.22;4936479;28;20183;-48
2023/08/29 02:10:32;;;;;;;2.28;2.17;;;;;;;-146.87;100.00;60295.22;4942053;28;20677;-48
2023/08/29 02:12:58;;;;;;;2.65;2.45;;;;;;;-146.87;100.00;60295.22;4938507;28;20198;-45
2023/08/29 02:15:23;;;;;;;2.10;2.00;;;;;;;-146.87;100.00;60295.22;4939682;28;20709;-47
2023/08/29 02:17:51;;;;;;;3.20;2.10;;;;;;;-146.87;100.00;60295.22;4939103;28;20548;-49
2023/08/29 02:20:16;;;;;;;3.28;2.60;;;;;;;-146.87;100.00;60295.22;4939035;28;20210;-47
2023/08/29 02:22:42;;;;;;;5.35;2.60;;;;;;;-146.87;100.00;60295.22;4941154;28;20472;-48
2023/08/29 02:25:07;;;;;;;3.10;2.33;;;;;;;-146.87;100.00;60295.22;4940300;28;20221;-47
2023/08/29 02:27:33;;;;;;;2.83;2.33;;;;;;;-146.87;100.00;60295.22;4940720;28;20196;-45
2023/08/29 02:29:59;;;;;;;3.50;2.20;;;;;;;-146.87;100.00;60295.22;4937611;28;20314;-50
2023/08/29 02:32:25;;;;;;;3.03;2.35;;;;;;;-146.87;100.00;60295.22;4940503;28;20270;-44
2023/08/29 02:34:51;;;;;;;2.55;2.22;;;;;;;-146.87;100.00;60295.22;4951880;28;20290;-48
2023/08/29 02:37:16;;;;;;;1.63;1.52;;;;;;;-146.87;100.00;60295.22;4939879;28;20205;-47
2023/08/29 02:39:42;;;;;;;4.07;2.13;;;;;;;-146.87;100.00;60295.22;4940269;28;20588;-46
2023/08/29 02:42:07;;;;;;;2.03;1.83;;;;;;;-146.87;100.00;60295.22;4941213;28;20182;-48
2023/08/29 02:44:33;;;;;;;1.95;1.85;;;;;;;-146.87;100.00;60295.22;4928974;28;20191;-48
2023/08/29 02:46:58;;;;;;;1.83;1.73;;;;;;;-146.87;100.00;60295.22;4942089;28;20217;-46
2023/08/29 02:49:24;;;;;;;2.20;2.00;;;;;;;-146.87;100.00;60295.22;4939768;28;20219;-46
2023/08/29 02:51:49;;;;;;;2.13;1.67;;;;;;;-146.87;100.00;60295.22;4936408;28;20192;-48
2023/08/29 02:54:15;;;;;;;5.05;2.20;;;;;;;-146.87;100.00;60295.22;4938487;28;20365;-45
2023/08/29 02:56:40;;;;;;;1.65;1.50;;;;;;;-146.87;100.00;60295.22;4941308;28;20707;-46
2023/08/29 02:59:06;;;;;;;2.28;2.10;;;;;;;-146.87;100.00;60295.22;4937819;28;20219;-47
2023/08/29 03:01:32;;;;;;;2.15;1.95;;;;;;;-146.87;100.00;60295.22;4936154;28;20209;-47
2023/08/29 03:03:57;;;;;;;1.80;1.70;;;;;;;-146.87;100.00;60295.22;4931523;29;20217;-46
2023/08/29 03:06:23;;;;;;;2.80;2.10;;;;;;;-146.87;100.00;60295.22;4939760;28;20179;-48
2023/08/29 03:08:48;;;;;;;2.60;2.40;;;;;;;-146.87;100.00;60295.22;4949996;28;20257;-45
2023/08/29 03:11:14;;;;;;;3.58;2.67;;;;;;;-146.87;100.00;60295.22;4933631;28;20230;-49
2023/08/29 03:13:39;;;;;;;2.20;2.10;;;;;;;-146.87;100.00;60295.22;4939714;28;20190;-45
2023/08/29 03:16:15;;;;;;;2.20;2.10;;;;;;;-146.87;100.00;60295.22;4953633;28;20199;-44
2023/08/29 03:18:41;;;;;;;5.10;2.45;;;;;;;-146.87;100.00;60295.22;4948840;28;20184;-45
2023/08/29 03:21:07;;;;;;;1.98;1.70;;;;;;;-146.87;100.00;60295.22;4941373;28;20558;-44
2023/08/29 03:23:36;;;;;;;2.30;2.10;;;;;;;-146.87;100.00;60295.22;4938242;28;20187;-47
2023/08/29 03:26:03;;;;;;;3.50;2.65;;;;;;;-146.87;100.00;60295.22;4939771;28;20705;-44
2023/08/29 03:28:28;;;;;;;2.40;2.22;;;;;;;-146.87;100.00;60295.22;4943110;28;20198;-48
2023/08/29 03:30:54;;;;;;;2.95;2.75;;;;;;;-146.87;100.00;60295.22;4938927;28;20779;-46
2023/08/29 03:33:19;;;;;;;2.28;2.08;;;;;;;-146.87;100.00;60295.22;4945552;28;20606;-48
2023/08/29 03:35:45;;;;;;;2.63;2.42;;;;;;;-146.87;100.00;60295.22;4938160;28;20186;-46
2023/08/29 03:38:10;;;;;;;2.97;2.50;;;;;;;-146.87;100.00;60295.22;4936814;28;20179;-46
2023/08/29 03:40:36;;;;;;;2.72;2.53;;;;;;;-146.87;100.00;60295.22;4920569;28;20215;-47
2023/08/29 03:43:01;;;;;;;4.90;2.70;;;;;;;-146.87;100.00;60295.22;4938656;28;20274;-47
2023/08/29 03:45:27;;;;;;;2.28;2.17;;;;;;;-146.87;100.00;60295.22;4936539;28;20224;-46
2023/08/29 03:47:52;;;;;;;3.08;2.20;;;;;;;-146.87;100.00;60295.22;4939077;28;20194;-46
2023/08/29 03:50:19;;;;;;;2.53;2.08;;;;;;;-146.87;100.00;60295.22;4942317;28;20354;-45
2023/08/29 03:52:44;;;;;;;2.50;2.10;;;;;;;-146.87;100.00;60295.22;4939382;28;20665;-47
2023/08/29 03:55:10;;;;;;;2.45;2.30;;;;;;;-146.87;100.00;60295.22;4937041;28;20274;-46
2023/08/29 03:57:36;;;;;;;2.42;2.22;;;;;;;-146.87;100.00;60295.22;4937319;28;20179;-45
2023/08/29 04:00:06;;;;;;;2.40;2.20;;;;;;;-146.87;100.00;60295.22;4940943;28;20708;-46
2023/08/29 04:02:39;;;;;;;2.13;1.90;;;;;;;-146.87;100.00;60295.22;4939711;28;20257;-48
2023/08/29 04:05:17;;;;;;;2.47;2.38;;;;;;;-146.87;100.00;60295.22;4935801;28;20749;-46
2023/08/29 04:07:44;;;;;;;3.05;2.40;;;;;;;-146.87;100.00;60295.22;4936017;28;20279;-44
2023/08/29 04:10:11;;;;;;;2.58;2.38;;;;;;;-146.87;100.00;60295.22;4942613;28;20218;-46
2023/08/29 04:12:38;;;;;;;2.97;2.70;;;;;;;-146.87;100.00;60295.22;4948087;28;20632;-47
2023/08/29 04:15:04;;;;;;;2.28;2.10;;;;;;;-146.87;100.00;60295.22;4940091;28;20224;-44
2023/08/29 04:17:29;;;;;;;2.80;2.60;;;;;;;-146.87;100.00;60295.22;4943139;28;20182;-45
2023/08/29 04:19:55;;;;;;;3.25;2.67;;;;;;;-146.87;100.00;60295.22;4944389;28;20206;-47
2023/08/29 04:22:21;;;;;;;3.20;2.80;;;;;;;-146.87;100.00;60295.22;4943432;28;20675;-49
2023/08/29 04:24:48;;;;;;;3.40;3.10;;;;;;;-146.87;100.00;60295.22;4936549;28;20190;-47
2023/08/29 04:27:14;;;;;;;3.00;2.70;;;;;;;-146.87;100.00;60295.22;4932573;28;20257;-49
2023/08/29 04:29:39;;;;;;;2.78;2.58;;;;;;;-146.87;100.00;60295.22;4936128;28;20207;-46
2023/08/29 04:32:05;;;;;;;3.13;2.88;;;;;;;-146.87;100.00;60295.22;4942442;28;20176;-45
2023/08/29 04:34:31;;;;;;;2.90;2.70;;;;;;;-146.87;100.00;60295.22;4939262;28;20435;-45
2023/08/29 04:36:56;;;;;;;4.47;3.13;;;;;;;-146.87;100.00;60295.22;4938658;28;20205;-47
2023/08/29 04:39:22;;;;;;;3.83;3.38;;;;;;;-146.87;100.00;60295.22;4940709;28;20203;-48
2023/08/29 04:41:49;;;;;;;6.30;3.20;;;;;;;-146.87;100.00;60295.22;4935725;28;20266;-48
2023/08/29 04:44:15;;;;;;;3.40;3.17;;;;;;;-146.87;100.00;60295.22;4942871;28;20238;-45
2023/08/29 04:46:41;;;;;;;3.80;3.50;;;;;;;-146.87;100.00;60295.22;4941365;28;20700;-49
2023/08/29 04:49:06;;;;;;;4.38;3.67;;;;;;;-146.87;100.00;60295.22;4938915;28;20202;-48
2023/08/29 04:51:34;;;;;;;3.45;2.65;;;;;;;-146.87;100.00;60295.22;4936135;28;20172;-47
2023/08/29 04:54:00;;;;;;;5.93;3.70;;;;;;;-146.87;100.00;60295.22;4937327;28;20193;-46
2023/08/29 04:56:26;;;;;;;4.53;3.72;;;;;;;-146.87;100.00;60295.22;4941224;28;20633;-46
2023/08/29 04:58:51;;;;;;;4.25;3.85;;;;;;;-146.87;100.00;60295.22;4938443;28;20289;-49
2023/08/29 05:01:17;;;;;;;4.78;4.28;;;;;;;-146.87;100.00;60295.22;4945152;28;20225;-42
2023/08/29 05:03:45;;;;;;;5.82;4.90;;;;;;;-146.87;100.00;60295.22;4961937;23;20674;-42
2023/08/29 05:06:10;;;;;;;5.07;4.60;;;;;;;-146.87;100.00;60295.22;4949457;28;20233;-46
2023/08/29 05:08:36;;;;;;;4.68;3.65;;;;;;;-146.87;100.00;60295.22;4949237;29;20216;-45
2023/08/29 05:11:03;;;;;;;4.63;3.80;;;;;;;-146.87;100.00;60295.22;4950573;28;20724;-44
2023/08/29 05:13:28;;;;;;;6.13;4.45;;;;;;;-146.87;100.00;60295.22;4948608;29;20187;-44
2023/08/29 05:15:54;;;;;;;5.25;4.82;;;;;;;-146.87;100.00;60295.22;4948773;29;20276;-47
2023/08/29 05:18:19;;;;;;;6.05;5.43;;;;;;;-146.87;100.00;60295.22;4962416;28;20198;-45
2023/08/29 05:20:45;;;;;;;4.75;4.35;;;;;;;-146.87;100.00;60295.22;4968605;28;20209;-45
2023/08/29 05:23:10;;;;;;;5.47;4.97;;;;;;;-146.87;100.00;60295.22;4949111;29;20217;-49
2023/08/29 05:25:36;;;;;;;5.18;4.68;;;;;;;-146.87;100.00;60295.22;4949196;29;20185;-45
2023/08/29 05:28:02;;;;;;;5.70;5.20;;;;;;;-146.87;100.00;60295.22;4950313;28;20183;-44
2023/08/29 05:30:30;;;;;;;6.50;6.00;;;;;;;-146.87;100.00;60295.22;4956962;28;20198;-43
2023/08/29 05:32:55;;;;;;;5.45;4.95;;;;;;;-146.87;100.00;60295.22;4959783;28;20183;-47
2023/08/29 05:35:21;;;;;;;5.60;5.10;;;;;;;-146.87;100.00;60295.22;4950653;28;20175;-51
2023/08/29 05:37:46;;;;;;;4.25;3.95;;;;;;;-146.87;100.00;60295.22;4950543;28;20187;-45
2023/08/29 05:40:12;;;;;;;6.25;4.90;;;;;;;-146.87;100.00;60295.22;4951646;28;20249;-46
2023/08/29 05:42:38;;;;;;;8.00;7.30;;;;;;;-146.87;100.00;60295.22;4950339;29;20187;-45
2023/08/29 05:45:03;;;;;;;8.52;7.80;;;;;;;-146.87;100.00;60295.22;4953349;28;20657;-44
2023/08/29 05:47:29;;;;;;;9.60;8.63;;;;;;;-146.87;100.00;60295.22;4954226;28;20186;-46
2023/08/29 05:49:54;;;;;;;8.43;7.72;;;;;;;-146.87;100.00;60295.22;4963586;28;20685;-49
2023/08/29 05:52:20;;;;;;;6.30;5.70;;;;;;;-146.87;100.00;60295.22;4966719;28;20241;-45
2023/08/29 05:54:45;;;;;;;8.35;6.45;;;;;;;-146.87;100.00;60295.22;4952682;29;20629;-45
2023/08/29 05:57:11;;;;;;;7.03;6.40;;;;;;;-146.87;100.00;60295.22;4953707;28;20178;-48
2023/08/29 05:59:36;;;;;;;6.30;5.32;;;;;;;-146.87;100.00;60295.22;4969036;28;20206;-45
2023/08/29 06:02:03;;;;;;;6.57;5.90;;;;;;;-146.87;100.00;60295.22;4954301;28;20194;-43
2023/08/29 06:04:28;;;;;;;5.63;5.13;;;;;;;-146.87;100.00;60295.22;4955827;28;20190;-45
2023/08/29 06:06:54;;;;;;;5.78;5.28;;;;;;;-146.87;100.00;60295.22;4965125;28;20539;-46
2023/08/29 06:09:19;;;;;;;7.78;7.03;;;;;;;-146.87;100.00;60295.22;4953742;29;20677;-42
2023/08/29 06:11:45;;;;;;;7.50;6.80;;;;;;;-146.87;100.00;60295.22;4969223;28;20223;-43
2023/08/29 06:14:11;;;;;;;7.10;5.35;;;;;;;-146.87;100.00;60295.22;4953543;28;20234;-46
2023/08/29 06:16:36;;;;;;;5.85;5.35;;;;;;;-146.87;100.00;60295.22;4972820;28;20644;-49
2023/08/29 06:19:02;;;;;;;7.03;6.32;;;;;;;-146.87;100.00;60295.22;4972775;28;20238;-46
2023/08/29 06:21:27;;;;;;;9.05;8.25;;;;;;;-146.87;100.00;60295.22;4972470;28;20206;-45
2023/08/29 06:23:53;;;;;;;7.35;6.75;;;;;;;-146.87;100.00;60295.22;4971309;28;20229;-46
2023/08/29 06:26:18;;;;;;;7.90;7.30;;;;;;;-146.87;100.00;60295.22;4952719;29;20186;-43
2023/08/29 06:28:44;;;;;;;7.22;6.53;;;;;;;-146.87;100.00;60295.22;4953262;28;20624;-44
2023/08/29 06:31:10;;;;;;;9.60;8.70;;;;;;;-146.87;100.00;60295.22;4953117;28;20223;-46
2023/08/29 06:33:37;;;;;;;12.95;9.23;;;;;;;-146.87;100.00;60295.22;4953182;28;20344;-49
2023/08/29 06:36:03;;;;;;;9.80;8.45;;;;;;;-146.87;100.00;60295.22;4958507;28;20522;-44
2023/08/29 06:38:30;;;;;;;10.02;8.40;;;;;;;-146.87;100.00;60295.22;4953086;28;20210;-45
2023/08/29 06:40:57;;;;;;;9.93;7.80;;;;;;;-146.87;100.00;60295.22;4952695;28;20206;-45
2023/08/29 06:43:23;;;;;;;7.80;7.10;;;;;;;-146.87;100.00;60295.22;4953900;28;20174;-47
2023/08/29 06:45:49;;;;;;;8.88;8.07;;;;;;;-146.87;100.00;60295.22;4971712;28;20202;-44
2023/08/29 06:48:15;;;;;;;10.60;9.43;;;;;;;-146.87;100.00;60295.22;4953033;29;20211;-47
2023/08/29 06:50:40;;;;;;;10.27;8.35;;;;;;;-146.87;100.00;60295.22;4960480;28;20285;-46
2023/08/29 06:53:06;;;;;;;10.00;8.82;;;;;;;-146.87;100.00;60295.22;4960027;28;20175;-43
2023/08/29 06:55:34;;;;;;;9.90;9.00;;;;;;;-146.87;100.00;60295.22;4951091;28;20182;-48
2023/08/29 06:58:00;;;;;;;9.70;8.80;;;;;;;-146.87;100.00;60295.22;4952954;28;20566;-46
2023/08/29 07:00:26;;;;;;;10.85;9.35;;;;;;;-146.87;100.00;60295.22;4952579;28;20664;-42
2023/08/29 07:02:52;;;;;;;12.75;9.70;;;;;;;-146.87;100.00;60295.22;4968751;28;20174;-45
2023/08/29 07:05:17;;;;;;;10.82;8.18;;;;;;;-146.87;100.00;60295.22;4956796;28;20201;-51
2023/08/29 07:07:43;;;;;;;11.77;10.60;;;;;;;-146.87;100.00;60295.22;4955798;28;20191;-44
2023/08/29 07:10:09;;;;;;;11.32;10.23;;;;;;;-146.87;100.00;60295.22;4966815;28;20205;-45
2023/08/29 07:12:35;;;;;;;15.25;11.13;;;;;;;-146.87;100.00;60295.22;4951303;28;20277;-47
2023/08/29 07:15:00;;;;;;;16.63;10.98;;;;;;;-146.87;100.00;60295.22;4953533;28;20639;-53
2023/08/29 07:17:27;;;;;;;17.65;12.15;;;;;;;-146.87;100.00;60295.22;4957766;28;20681;-44
2023/08/29 07:19:53;;;;;;;20.02;13.70;;;;;;;-146.87;100.00;60295.22;4952202;28;20266;-51
2023/08/29 07:22:18;;;;;;;13.25;10.95;;;;;;;-146.87;100.00;60295.22;4951908;28;20183;-44
2023/08/29 07:24:44;;;;;;;14.45;10.55;;;;;;;-146.87;100.00;60295.22;4952270;28;20274;-44
2023/08/29 07:27:10;;;;;;;15.68;11.90;;;;;;;-146.87;100.00;60295.22;4951798;28;20171;-48
2023/08/29 07:29:36;;;;;;;12.45;9.18;;;;;;;-146.87;100.00;60295.22;4951794;28;20239;-45
2023/08/29 07:32:01;;;;;;;11.40;10.23;;;;;;;-146.87;100.00;60295.22;4951658;28;20225;-52
2023/08/29 07:34:27;;;;;;;11.98;9.40;;;;;;;-146.87;100.00;60295.22;4951894;28;20182;-44
2023/08/29 07:36:53;;;;;;;11.35;9.27;;;;;;;-146.87;100.00;60295.22;4959499;28;20182;-46
2023/08/29 07:39:19;;;;;;;10.57;9.00;;;;;;;-146.87;100.00;60295.22;4951559;28;20681;-46
2023/08/29 07:41:45;;;;;;;10.10;9.00;;;;;;;-146.87;100.00;60295.22;4951556;28;20246;-52
2023/08/29 07:44:11;;;;;;;11.85;10.65;;;;;;;-146.87;100.00;60295.22;4948785;28;20269;-47
2023/08/29 07:46:36;;;;;;;13.45;11.88;;;;;;;-146.87;100.00;60295.22;4960978;28;20278;-45
2023/08/29 07:49:02;;;;;;;13.02;11.82;;;;;;;-146.87;100.00;60295.22;4951712;28;20677;-45
2023/08/29 07:51:28;;;;;;;11.93;10.68;;;;;;;-146.87;100.00;60295.22;4951514;28;20221;-45
2023/08/29 07:53:53;;;;;;;12.27;9.65;;;;;;;-146.87;100.00;60295.22;4951319;28;20646;-52
2023/08/29 07:56:19;;;;;;;11.48;10.38;;;;;;;-146.87;100.00;60295.22;4951375;28;20265;-45
2023/08/29 07:58:44;;;;;;;9.32;8.43;;;;;;;-146.87;100.00;60295.22;4953115;28;20225;-44
2023/08/29 08:01:11;;;;;;;7.35;6.65;;;;;;;-146.87;100.00;60295.22;4959073;28;20622;-51
2023/08/29 08:03:38;;;;;;;8.90;6.75;;;;;;;-146.87;100.00;60295.22;4951359;28;20187;-45
2023/08/29 08:06:03;;;;;;;8.45;6.72;;;;;;;-146.87;100.00;60295.22;4959328;28;20194;-44
2023/08/29 08:08:29;;;;;;;7.32;6.47;;;;;;;-146.87;100.00;60295.22;4951125;28;20265;-45
2023/08/29 08:10:55;;;;;;;8.00;6.45;;;;;;;-146.87;100.00;60295.22;4951211;28;20219;-43
2023/08/29 08:13:20;;;;;;;7.88;5.95;;;;;;;-146.87;100.00;60295.22;4951238;28;20241;-51
2023/08/29 08:15:46;;;;;;;6.38;5.70;;;;;;;-146.87;100.00;60295.22;4958079;28;20191;-45
2023/08/29 08:18:11;;;;;;;5.90;4.88;;;;;;;-146.87;100.00;60295.22;4951166;29;20613;-46
2023/08/29 08:20:37;;;;;;;7.18;5.75;;;;;;;-146.87;100.00;60295.22;4951125;28;20225;-50
2023/08/29 08:23:03;;;;;;;8.23;5.15;;;;;;;-146.87;100.00;60295.22;4952853;28;20213;-43
2023/08/29 08:25:29;;;;;;;5.13;4.15;;;;;;;-146.87;100.00;60295.22;4960870;28;20653;-42
2023/08/29 08:27:54;;;;;;;7.47;4.60;;;;;;;-146.87;100.00;60295.22;4957304;28;20189;-45
2023/08/29 08:30:20;;;;;;;4.38;3.97;;;;;;;-146.87;100.00;60295.22;4951067;28;20213;-51
2023/08/29 08:32:45;;;;;;;4.43;3.38;;;;;;;-146.87;100.00;60295.22;4946432;28;20198;-44
2023/08/29 08:35:11;;;;;;;4.40;3.47;;;;;;;-146.87;100.00;60295.22;4951303;28;20189;-46
2023/08/29 08:37:36;;;;;;;3.75;2.90;;;;;;;-146.87;100.00;60295.22;4950476;28;20492;-47
2023/08/29 08:40:09;;;;;;;2.67;2.20;;;;;;;-146.87;100.00;60295.22;4958735;28;20255;-44
2023/08/29 08:42:41;;;;;;;2.40;2.20;;;;;;;-146.87;100.00;60295.22;4950871;28;20190;-50
2023/08/29 08:45:08;;;;;;;2.42;2.10;;;;;;;-146.87;100.00;60295.22;4950814;28;20197;-44
2023/08/29 08:47:35;;;;;;;3.72;1.80;;;;;;;-146.87;100.00;60295.22;4950874;28;20206;-52
2023/08/29 08:50:02;;;;;;;2.17;2.08;;;;;;;-146.87;100.00;60295.22;4951366;28;20206;-44
2023/08/29 08:52:32;;;;;;;2.42;1.92;;;;;;;-146.87;100.00;60295.22;4957444;28;20221;-50
2023/08/29 08:54:58;;;;;;;3.15;1.80;;;;;;;-146.87;100.00;60295.22;4955066;28;20185;-50
2023/08/29 08:57:24;;;;;;;4.38;1.90;;;;;;;-146.87;100.00;60295.22;4953576;28;20201;-46
2023/08/29 08:59:50;;;;;;;2.38;1.80;;;;;;;-146.87;100.00;60295.22;4953963;28;20214;-44
2023/08/29 09:02:17;;;;;;;1.85;1.27;;;;;;;-146.87;100.00;60295.22;4949493;28;20211;-44
2023/08/29 09:04:43;;;;;;;3.53;1.70;;;;;;;-146.87;100.00;60295.22;4948158;28;20202;-47
2023/08/29 09:07:09;;;;;;;3.55;1.50;;;;;;;-146.87;100.00;60295.22;4949723;28;20186;-47
2023/08/29 09:09:34;;;;;;;1.67;1.45;;;;;;;-146.87;100.00;60295.22;4957737;28;20268;-45
2023/08/29 09:12:00;;;;;;;3.00;1.80;;;;;;;-146.87;100.00;60295.22;4946462;28;20218;-44
2023/08/29 09:14:26;;;;;;;1.75;1.65;;;;;;;-146.87;100.00;60295.22;4949838;28;20178;-48
2023/08/29 09:16:56;;;;;;;3.90;1.80;;;;;;;-146.87;100.00;60295.22;4952833;28;20171;-47
2023/08/29 09:19:23;;;;;;;1.90;1.55;;;;;;;-146.87;100.00;60295.22;4944570;28;20210;-46
2023/08/29 09:21:49;;;;;;;4.07;1.80;;;;;;;-146.87;100.00;60295.22;4949030;28;20214;-44
2023/08/29 09:24:22;;;;;;;3.67;1.50;;;;;;;-146.87;100.00;60295.22;4946631;28;20195;-45
2023/08/29 09:26:48;;;;;;;2.92;1.75;;;;;;;-146.87;100.00;60295.22;4944397;28;20202;-49
2023/08/29 09:29:19;;;;;;;1.45;1.30;;;;;;;-146.87;100.00;60295.22;4943183;28;20203;-45
2023/08/29 09:31:46;;;;;;;0.95;0.95;;;;;;;-146.87;100.00;60295.22;4949531;28;20197;-49
2023/08/29 09:34:28;;;;;;;2.03;1.20;;;;;;;-146.87;100.00;60295.22;4952877;28;20273;-43
2023/08/29 09:36:57;;;;;;;1.35;1.17;;;;;;;-146.87;100.00;60295.22;4944372;28;20351;-44
2023/08/29 09:39:23;;;;;;;2.10;1.20;;;;;;;-146.87;100.00;60295.22;4944752;28;20206;-51
2023/08/29 09:42:06;;;;;;;1.65;1.17;;;;;;;-146.87;100.00;60295.22;4950565;28;20284;-51
2023/08/29 09:44:37;;;;;;;1.35;0.90;;;;;;;-146.87;100.00;60295.22;4940602;28;20191;-46
2023/08/29 09:47:04;;;;;;;2.10;1.30;;;;;;;-146.87;100.00;60295.22;4947112;28;20680;-44
2023/08/29 09:49:50;;;;;;;1.77;1.23;;;;;;;-146.87;100.00;60295.22;4950372;28;20199;-49
2023/08/29 09:52:17;;;;;;;4.30;1.27;;;;;;;-146.87;100.00;60295.22;4949055;28;20962;-43
2023/08/29 09:54:52;;;;;;;1.65;1.15;;;;;;;-146.87;100.00;60295.22;4952793;28;20229;-46
2023/08/29 09:57:21;;;;;;;2.03;0.98;;;;;;;-146.87;100.00;60295.22;4950218;28;20182;-43
2023/08/29 09:59:47;;;;;;;1.02;0.98;;;;;;;-146.87;100.00;60295.22;4951373;28;20303;-46
2023/08/29 10:02:14;;;;;;;1.73;0.60;;;;;;;-146.87;100.00;60295.22;4952784;28;20647;-49
2023/08/29 10:04:50;;;;;;;1.33;0.80;;;;;;;-146.87;100.00;60295.22;4954906;28;20186;-51
2023/08/29 10:07:20;;;;;;;4.38;0.82;;;;;;;-146.87;100.00;60295.22;4948153;28;20197;-45
2023/08/29 10:09:46;;;;;;;3.70;0.98;;;;;;;-146.87;100.00;60295.22;4950862;28;20218;-45
2023/08/29 10:12:12;;;;;;;2.42;0.80;;;;;;;-146.87;100.00;60295.22;4945970;28;20175;-48
2023/08/29 10:14:38;;;;;;;1.25;0.75;;;;;;;-146.87;100.00;60295.22;4953710;28;20183;-45
2023/08/29 10:17:05;;;;;;;3.10;0.82;;;;;;;-146.87;100.00;60295.22;4946317;28;20198;-51
2023/08/29 10:19:33;;;;;;;1.40;1.00;;;;;;;-146.87;100.00;60295.22;4950480;28;20199;-46
2023/08/29 10:22:00;;;;;;;1.92;0.90;;;;;;;-146.87;100.00;60295.22;4946914;28;20206;-46
2023/08/29 10:24:26;;;;;;;0.85;0.85;;;;;;;-146.87;100.00;60295.22;4952279;28;20178;-44
2023/08/29 10:26:52;;;;;;;1.10;0.90;;;;;;;-146.87;100.00;60295.22;4953075;28;20187;-46
2023/08/29 10:29:18;;;;;;;2.67;1.05;;;;;;;-146.87;100.00;60295.22;4952740;28;20209;-43
2023/08/29 10:31:45;;;;;;;1.60;0.98;;;;;;;-146.87;100.00;60295.22;4951387;28;20253;-48
2023/08/29 10:34:13;;;;;;;1.95;1.20;;;;;;;-146.87;100.00;60295.22;4953541;28;20170;-44
2023/08/29 10:36:39;;;;;;;2.28;0.80;;;;;;;-146.87;100.00;60295.22;4957433;28;20296;-50
2023/08/29 10:39:09;;;;;;;2.33;1.20;;;;;;;-146.87;100.00;60295.22;4952553;28;20334;-46
2023/08/29 10:41:48;;;;;;;1.77;0.80;;;;;;;-146.87;100.00;60295.22;4948642;28;20677;-45
2023/08/29 10:44:32;;;;;;;2.58;1.10;;;;;;;-146.87;100.00;60295.22;4952722;28;20217;-47
2023/08/29 10:47:23;;;;;;;2.38;1.02;;;;;;;-146.87;100.00;60295.22;4951397;28;20186;-47
2023/08/29 10:49:59;;;;;;;1.15;1.08;;;;;;;-146.87;100.00;60295.22;4946929;28;20202;-47
2023/08/29 10:52:41;;;;;;;3.03;1.33;;;;;;;-146.87;100.00;60295.22;4959145;28;20191;-48
2023/08/29 10:55:32;;;;;;;1.38;1.02;;;;;;;-146.87;100.00;60295.22;4957962;28;20253;-47
2023/08/29 10:58:00;;;;;;;4.20;1.10;;;;;;;-146.87;100.00;60295.22;4952158;28;20527;-44
2023/08/29 11:00:51;;;;;;;1.10;1.00;;;;;;;-146.87;100.00;60295.22;4952045;28;20297;-45
2023/08/29 11:03:48;;;;;;;2.25;1.00;;;;;;;-146.87;100.00;60295.22;4951662;28;20215;-45
2023/08/29 11:06:16;;;;;;;2.13;0.90;;;;;;;-146.87;100.00;60295.22;4939698;28;20231;-47